Time;durP1;ratioP1;P1;durP2;ratioP2;P2;SDS_P1;SDS_P2;PMS_P1;PMS_P2;Temp;Humidity;BMP_temperature;BMP_pressure;BME280_temperature;BME280_humidity;BME280_pressure;Samples;Min_cycle;Max_cycle;Signal;HPM_P1;HPM_P2
2023/08/25 00:01:30;;;;;;;152.80;119.30;;;18.80;99.90;;;;;;6098096;23;20383;-92
2023/08/25 00:03:56;;;;;;;149.68;116.28;;;18.80;99.90;;;;;;6098839;23;20405;-93
2023/08/25 00:06:25;;;;;;;152.47;117.77;;;19.00;99.90;;;;;;6100452;23;20426;-92
2023/08/25 00:08:50;;;;;;;140.25;110.57;;;18.80;99.90;;;;;;6097792;23;20720;-92
2023/08/25 00:11:16;;;;;;;145.20;112.73;;;18.90;99.90;;;;;;6099851;23;20367;-94
2023/08/25 00:13:42;;;;;;;141.18;111.97;;;19.00;99.90;;;;;;6097335;23;20445;-92
2023/08/25 00:16:08;;;;;;;162.30;116.90;;;18.70;99.90;;;;;;6099426;23;20375;-92
2023/08/25 00:18:34;;;;;;;174.67;120.27;;;18.60;99.90;;;;;;6097140;23;20375;-93
2023/08/25 00:21:00;;;;;;;256.38;140.77;;;18.70;99.90;;;;;;6099114;23;20712;-93
2023/08/25 00:23:26;;;;;;;134.95;104.55;;;19.00;99.90;;;;;;6098484;23;20386;-93
2023/08/25 00:25:53;;;;;;;167.13;119.47;;;18.70;99.90;;;;;;6098723;23;20379;-93
2023/08/25 00:28:19;;;;;;;253.53;132.87;;;18.90;99.90;;;;;;6099939;23;20371;-92
2023/08/25 00:30:45;;;;;;;217.87;130.23;;;19.30;99.90;;;;;;6097230;23;20371;-93
2023/08/25 00:33:10;;;;;;;215.20;131.83;;;18.90;99.90;;;;;;6099443;23;20378;-92
2023/08/25 00:35:36;;;;;;;197.77;123.05;;;18.80;99.90;;;;;;6096988;23;20911;-93
2023/08/25 00:38:02;;;;;;;212.47;126.20;;;19.30;99.90;;;;;;6099816;23;20383;-93
2023/08/25 00:40:33;;;;;;;199.68;123.28;;;19.00;99.90;;;;;;6097495;23;20368;-92
2023/08/25 00:42:59;;;;;;;202.90;121.75;;;19.00;99.90;;;;;;6093905;23;20461;-93
2023/08/25 00:45:25;;;;;;;267.58;133.48;;;19.40;99.90;;;;;;6070299;23;20459;-94
2023/08/25 00:47:50;;;;;;;207.70;119.13;;;19.10;99.90;;;;;;6068064;23;20368;-94
2023/08/25 00:50:16;;;;;;;227.05;121.82;;;19.50;99.90;;;;;;6070742;23;20447;-93
2023/08/25 00:52:42;;;;;;;204.90;115.60;;;19.30;99.90;;;;;;6068218;23;20385;-93
2023/08/25 00:55:08;;;;;;;197.60;106.90;;;19.50;99.90;;;;;;6071003;23;20381;-92
2023/08/25 00:57:35;;;;;;;182.20;102.93;;;19.20;99.90;;;;;;6068229;23;21047;-93
2023/08/25 01:00:02;;;;;;;334.08;132.43;;;19.30;99.90;;;;;;6070472;23;20381;-93
2023/08/25 01:02:29;;;;;;;163.40;101.03;;;19.20;99.90;;;;;;6069379;23;20369;-92
2023/08/25 01:04:54;;;;;;;237.63;114.57;;;19.40;99.90;;;;;;6069122;23;20403;-92
2023/08/25 01:07:20;;;;;;;179.68;100.55;;;19.20;99.90;;;;;;6070877;23;20377;-93
2023/08/25 01:09:46;;;;;;;291.67;126.97;;;19.30;99.90;;;;;;6068240;23;20407;-94
2023/08/25 01:12:21;;;;;;;205.35;106.03;;;19.40;99.90;;;;;;6070601;23;20373;-92
2023/08/25 01:15:04;;;;;;;240.07;111.30;;;19.20;99.90;;;;;;6067690;23;20534;-93
2023/08/25 01:17:53;;;;;;;209.35;102.97;;;19.50;99.90;;;;;;6069973;23;20468;-93
2023/08/25 01:20:22;;;;;;;223.23;110.30;;;19.20;99.90;;;;;;6070268;23;20687;-93
2023/08/25 01:23:17;;;;;;;156.63;96.40;;;19.40;99.90;;;;;;6067831;23;20455;-92
2023/08/25 01:25:45;;;;;;;253.20;114.40;;;19.10;99.90;;;;;;6070566;23;20889;-92
2023/08/25 01:28:10;;;;;;;190.65;104.18;;;19.10;99.90;;;;;;6068738;23;20920;-93
2023/08/25 01:30:36;;;;;;;217.03;107.20;;;19.00;99.90;;;;;;6070441;23;20420;-91
2023/08/25 01:33:03;;;;;;;218.82;105.63;;;19.00;99.90;;;;;;6071532;23;20373;-93
2023/08/25 01:36:00;;;;;;;300.67;109.03;;;19.00;99.90;;;;;;6070263;23;20465;-93
2023/08/25 01:39:00;;;;;;;224.30;106.70;;;19.00;99.90;;;;;;6072505;23;20419;-93
2023/08/25 01:41:32;;;;;;;282.15;111.72;;;19.00;99.90;;;;;;6070828;23;20392;-93
2023/08/25 01:44:02;;;;;;;309.60;116.30;;;18.90;99.90;;;;;;6070397;23;20409;-93
2023/08/25 01:46:28;;;;;;;181.27;99.63;;;18.90;99.90;;;;;;6071878;23;20484;-92
2023/08/25 01:48:57;;;;;;;178.68;97.10;;;18.90;99.90;;;;;;6069426;23;20419;-92
2023/08/25 01:51:23;;;;;;;185.25;96.72;;;19.30;99.90;;;;;;6072307;23;21070;-92
2023/08/25 01:53:53;;;;;;;195.55;99.60;;;19.30;99.90;;;;;;6069658;23;20388;-93
2023/08/25 01:56:19;;;;;;;254.68;108.82;;;19.20;99.90;;;;;;6072093;23;20373;-93
2023/08/25 01:58:45;;;;;;;180.70;96.90;;;19.10;99.90;;;;;;6070931;23;20464;-92
2023/08/25 02:01:10;;;;;;;166.15;92.03;;;19.30;99.90;;;;;;6070483;23;20373;-94
2023/08/25 02:03:36;;;;;;;244.73;105.13;;;19.30;99.90;;;;;;6071821;23;20463;-93
2023/08/25 02:06:02;;;;;;;189.97;100.87;;;19.20;99.90;;;;;;6069308;23;20377;-93
2023/08/25 02:08:30;;;;;;;273.60;113.88;;;19.20;99.90;;;;;;6071604;23;20373;-93
2023/08/25 02:10:56;;;;;;;215.98;105.57;;;19.40;99.90;;;;;;6068795;23;20373;-94
2023/08/25 02:13:21;;;;;;;209.17;106.00;;;19.60;99.90;;;;;;6072495;23;20822;-92
2023/08/25 02:15:52;;;;;;;202.77;101.65;;;19.30;99.90;;;;;;6069625;23;20376;-94
2023/08/25 02:18:17;;;;;;;197.65;100.20;;;19.50;99.90;;;;;;6071063;23;20381;-93
2023/08/25 02:20:43;;;;;;;230.50;106.45;;;19.30;99.90;;;;;;6071245;23;20445;-94
2023/08/25 02:23:09;;;;;;;186.47;97.67;;;19.30;99.90;;;;;;6069805;23;20372;-92
2023/08/25 02:25:35;;;;;;;193.75;100.25;;;19.60;99.90;;;;;;6072274;23;20472;-92
2023/08/25 02:28:01;;;;;;;189.32;96.28;;;19.40;99.90;;;;;;6069073;23;20377;-93
2023/08/25 02:30:27;;;;;;;164.02;90.07;;;19.50;99.90;;;;;;6071621;23;20384;-93
2023/08/25 02:32:54;;;;;;;229.93;96.90;;;19.20;99.90;;;;;;6068839;23;20376;-94
2023/08/25 02:35:20;;;;;;;173.93;89.75;;;19.30;99.90;;;;;;6071336;23;20376;-93
2023/08/25 02:37:58;;;;;;;191.35;96.03;;;19.30;99.90;;;;;;6070326;23;20377;-92
2023/08/25 02:40:25;;;;;;;263.73;103.43;;;19.50;99.90;;;;;;6070045;23;20381;-92
2023/08/25 02:42:51;;;;;;;176.48;92.07;;;19.50;99.90;;;;;;6090657;23;20390;-93
2023/08/25 02:45:16;;;;;;;151.15;80.65;;;19.50;99.90;;;;;;6097759;23;21000;-92
2023/08/25 02:47:42;;;;;;;146.57;84.27;;;19.20;99.90;;;;;;6100507;23;20375;-92
2023/08/25 02:50:08;;;;;;;196.45;96.13;;;19.20;99.90;;;;;;6098072;23;20399;-92
2023/08/25 02:52:34;;;;;;;182.27;92.80;;;19.20;99.90;;;;;;6100804;23;20478;-92
2023/08/25 02:55:00;;;;;;;164.00;85.83;;;19.20;99.90;;;;;;6098556;23;20382;-93
2023/08/25 02:57:26;;;;;;;183.80;88.20;;;19.50;99.90;;;;;;6099351;23;20438;-93
2023/08/25 02:59:52;;;;;;;170.20;88.53;;;19.20;99.90;;;;;;6100056;23;20390;-93
2023/08/25 03:02:17;;;;;;;191.03;93.43;;;19.40;99.90;;;;;;6098132;23;20447;-94
2023/08/25 03:04:43;;;;;;;170.98;91.57;;;19.30;99.90;;;;;;6100168;23;20399;-92
2023/08/25 03:07:09;;;;;;;148.20;83.10;;;19.40;99.90;;;;;;6097587;23;20367;-92
2023/08/25 03:09:34;;;;;;;180.60;89.27;;;19.40;99.90;;;;;;6100418;23;20402;-92
2023/08/25 03:12:00;;;;;;;143.98;82.45;;;19.20;99.90;;;;;;6097564;23;20368;-93
2023/08/25 03:14:26;;;;;;;195.57;91.00;;;19.20;99.90;;;;;;6100200;23;20375;-91
2023/08/25 03:16:52;;;;;;;148.27;81.40;;;19.30;99.90;;;;;;6099013;23;20860;-93
2023/08/25 03:19:18;;;;;;;143.82;81.90;;;19.20;99.90;;;;;;6098313;23;20363;-93
2023/08/25 03:21:44;;;;;;;181.85;93.25;;;19.20;99.90;;;;;;6099927;23;20374;-92
2023/08/25 03:24:09;;;;;;;181.93;93.57;;;19.30;99.90;;;;;;6097496;23;20395;-94
2023/08/25 03:26:35;;;;;;;150.23;83.38;;;19.50;99.90;;;;;;6100211;23;20371;-92
2023/08/25 03:29:00;;;;;;;174.03;88.60;;;19.50;99.90;;;;;;6097289;23;20363;-92
2023/08/25 03:31:26;;;;;;;178.13;89.35;;;19.60;99.90;;;;;;6100113;23;20927;-93
2023/08/25 03:33:52;;;;;;;197.87;91.07;;;19.20;99.90;;;;;;6098087;23;20678;-94
2023/08/25 03:36:17;;;;;;;157.15;88.18;;;19.20;99.90;;;;;;6099071;23;20878;-93
2023/08/25 03:38:43;;;;;;;167.03;88.90;;;19.30;99.90;;;;;;6100051;23;20375;-93
2023/08/25 03:41:09;;;;;;;157.35;85.22;;;19.20;99.90;;;;;;6097653;23;20430;-92
2023/08/25 03:43:36;;;;;;;145.53;79.90;;;19.50;99.90;;;;;;6099674;23;20378;-93
2023/08/25 03:46:02;;;;;;;139.02;80.30;;;19.00;99.90;;;;;;6097278;23;20375;-92
2023/08/25 03:48:28;;;;;;;144.30;80.20;;;19.20;99.90;;;;;;6099577;23;20425;-94
2023/08/25 03:50:54;;;;;;;150.93;83.23;;;19.20;99.90;;;;;;6097405;23;20418;-93
2023/08/25 03:53:19;;;;;;;177.25;88.90;;;19.50;99.90;;;;;;6099509;23;20386;-92
2023/08/25 03:55:45;;;;;;;171.90;90.53;;;19.50;99.90;;;;;;6099031;23;20411;-93
2023/08/25 03:58:12;;;;;;;125.85;75.80;;;19.30;99.90;;;;;;6098687;23;20418;-93
2023/08/25 04:00:37;;;;;;;165.83;89.00;;;19.30;99.90;;;;;;6099674;23;20421;-92
2023/08/25 04:03:07;;;;;;;133.65;81.47;;;19.40;99.90;;;;;;6097431;23;20801;-92
2023/08/25 04:05:33;;;;;;;174.47;92.50;;;19.10;99.90;;;;;;6099626;23;20879;-92
2023/08/25 04:07:59;;;;;;;269.00;106.47;;;19.40;99.90;;;;;;6096696;23;20791;-92
2023/08/25 04:10:25;;;;;;;135.67;82.03;;;19.40;99.90;;;;;;6099799;23;20375;-94
2023/08/25 04:12:51;;;;;;;159.07;89.18;;;19.30;99.90;;;;;;6097766;23;20802;-93
2023/08/25 04:15:19;;;;;;;165.02;90.50;;;19.60;99.90;;;;;;6099001;23;20375;-92
2023/08/25 04:17:45;;;;;;;150.27;87.75;;;19.00;99.90;;;;;;6099387;23;20385;-91
2023/08/25 04:20:11;;;;;;;195.50;97.38;;;19.30;99.90;;;;;;6097302;23;20868;-92
2023/08/25 04:22:36;;;;;;;155.68;86.93;;;19.20;99.90;;;;;;6099327;23;20378;-91
2023/08/25 04:25:03;;;;;;;200.33;96.53;;;19.20;99.90;;;;;;6097425;23;20410;-91
2023/08/25 04:27:28;;;;;;;248.80;102.43;;;19.20;99.90;;;;;;6099385;23;20433;-91
2023/08/25 04:29:54;;;;;;;174.77;91.18;;;19.50;99.90;;;;;;6097574;23;20386;-92
2023/08/25 04:32:20;;;;;;;161.17;87.53;;;19.20;99.90;;;;;;6099744;23;20426;-91
2023/08/25 04:34:45;;;;;;;176.40;92.68;;;19.50;99.90;;;;;;6098177;23;20383;-93
2023/08/25 04:37:11;;;;;;;233.00;103.70;;;19.20;99.90;;;;;;6098519;23;20915;-92
2023/08/25 04:39:37;;;;;;;237.77;102.45;;;19.30;99.90;;;;;;6099563;23;20371;-95
2023/08/25 04:42:02;;;;;;;279.93;114.90;;;19.30;99.90;;;;;;6087034;23;21161;-93
2023/08/25 04:44:28;;;;;;;221.00;105.10;;;19.30;99.90;;;;;;6071001;23;20404;-92
2023/08/25 04:46:54;;;;;;;240.90;105.33;;;19.20;99.90;;;;;;6068274;23;20368;-94
2023/08/25 04:49:19;;;;;;;302.67;115.03;;;19.70;99.90;;;;;;6070916;23;20379;-93
2023/08/25 04:51:45;;;;;;;279.77;115.60;;;19.30;99.90;;;;;;6068365;23;20377;-93
2023/08/25 04:54:11;;;;;;;257.00;111.73;;;19.60;99.90;;;;;;6070218;23;20424;-93
2023/08/25 04:56:37;;;;;;;289.05;117.65;;;19.30;99.90;;;;;;6070036;23;20415;-93
2023/08/25 04:59:03;;;;;;;293.02;116.38;;;19.50;99.90;;;;;;6068610;23;20381;-93
2023/08/25 05:01:28;;;;;;;266.38;111.82;;;19.40;99.90;;;;;;6071120;23;20377;-92
2023/08/25 05:03:55;;;;;;;234.27;109.70;;;19.40;99.90;;;;;;6068082;23;20869;-93
2023/08/25 05:06:21;;;;;;;225.57;103.07;;;19.40;99.90;;;;;;6070965;23;20369;-92
2023/08/25 05:08:47;;;;;;;226.35;105.07;;;19.40;99.90;;;;;;6069976;23;20671;-93
2023/08/25 05:11:13;;;;;;;222.10;102.65;;;19.70;99.90;;;;;;6072118;23;20388;-92
2023/08/25 05:13:39;;;;;;;242.05;107.00;;;19.50;99.90;;;;;;6070948;23;20383;-92
2023/08/25 05:16:04;;;;;;;218.52;102.30;;;19.80;99.90;;;;;;6071522;23;20377;-92
2023/08/25 05:18:31;;;;;;;269.33;110.63;;;19.50;99.90;;;;;;6072162;23;20416;-92
2023/08/25 05:21:00;;;;;;;264.88;109.22;;;19.50;99.90;;;;;;6069801;23;20376;-93
2023/08/25 05:23:29;;;;;;;339.60;118.13;;;19.50;99.90;;;;;;6072057;23;20380;-92
2023/08/25 05:25:58;;;;;;;266.38;112.32;;;19.50;99.90;;;;;;6068726;23;20368;-93
2023/08/25 05:28:23;;;;;;;282.88;116.63;;;19.60;99.90;;;;;;6071859;23;20461;-93
2023/08/25 05:30:49;;;;;;;341.67;126.63;;;19.40;99.90;;;;;;6070444;23;20364;-93
2023/08/25 05:33:15;;;;;;;288.37;118.60;;;19.70;99.90;;;;;;6071756;23;20380;-94
2023/08/25 05:35:41;;;;;;;306.05;122.13;;;19.70;99.90;;;;;;6071903;23;20385;-95
2023/08/25 05:38:07;;;;;;;390.67;132.02;;;19.80;99.90;;;;;;6069949;23;20380;-92
2023/08/25 05:40:32;;;;;;;260.33;118.97;;;19.70;99.90;;;;;;6071328;23;20381;-94
2023/08/25 05:42:58;;;;;;;222.15;111.35;;;19.70;99.90;;;;;;6068860;23;20775;-93
2023/08/25 05:45:24;;;;;;;207.10;109.67;;;19.90;99.90;;;;;;6072378;23;20407;-93
2023/08/25 05:47:49;;;;;;;188.10;102.97;;;20.10;99.90;;;;;;6071058;23;21040;-92
2023/08/25 05:50:15;;;;;;;205.47;107.40;;;20.10;99.90;;;;;;6071682;23;20455;-93
2023/08/25 05:52:44;;;;;;;179.98;102.28;;;19.80;99.90;;;;;;6070611;23;20377;-93
2023/08/25 05:55:12;;;;;;;169.20;99.07;;;19.80;99.90;;;;;;6069783;23;20384;-94
2023/08/25 05:57:38;;;;;;;194.35;108.07;;;19.80;99.90;;;;;;6071626;23;20452;-93
2023/08/25 06:00:05;;;;;;;199.00;109.30;;;19.80;99.90;;;;;;6069602;23;20806;-93
2023/08/25 06:02:32;;;;;;;177.13;103.05;;;19.90;99.90;;;;;;6071364;23;20384;-93
2023/08/25 06:04:58;;;;;;;152.50;92.32;;;19.90;99.90;;;;;;6069303;23;20400;-93
2023/08/25 06:07:24;;;;;;;144.60;92.25;;;20.30;99.90;;;;;;6071791;23;20372;-92
2023/08/25 06:09:49;;;;;;;181.55;103.82;;;19.90;99.90;;;;;;6069266;23;20376;-92
2023/08/25 06:12:15;;;;;;;169.97;100.97;;;19.90;99.90;;;;;;6070858;23;20533;-93
2023/08/25 06:14:41;;;;;;;173.35;100.03;;;19.90;99.90;;;;;;6071099;23;20435;-94
2023/08/25 06:17:06;;;;;;;140.40;93.97;;;20.00;99.90;;;;;;6069530;23;20381;-92
2023/08/25 06:19:33;;;;;;;128.73;88.55;;;20.30;99.90;;;;;;6072041;23;20355;-91
2023/08/25 06:21:58;;;;;;;150.88;96.88;;;20.00;99.90;;;;;;6069255;23;20376;-93
2023/08/25 06:24:25;;;;;;;114.17;84.57;;;20.10;99.90;;;;;;6072053;23;20396;-93
2023/08/25 06:26:54;;;;;;;104.10;80.78;;;20.10;99.90;;;;;;6094403;23;20365;-92
2023/08/25 06:29:19;;;;;;;115.13;84.97;;;20.50;99.90;;;;;;6071642;23;20428;-91
2023/08/25 06:31:45;;;;;;;115.60;87.95;;;20.60;99.90;;;;;;6071352;23;20365;-92
2023/08/25 06:34:11;;;;;;;98.90;78.18;;;20.50;99.90;;;;;;6070382;23;20381;-93
2023/08/25 06:36:37;;;;;;;78.70;69.53;;;20.50;99.90;;;;;;6071730;23;20434;-91
2023/08/25 06:39:03;;;;;;;77.60;67.65;;;20.70;99.90;;;;;;6068981;23;20377;-92
2023/08/25 06:41:29;;;;;;;80.13;67.63;;;20.50;99.90;;;;;;6071277;23;20384;-91
2023/08/25 06:43:57;;;;;;;79.95;69.03;;;20.40;99.90;;;;;;6069840;23;20784;-91
2023/08/25 06:46:23;;;;;;;83.55;70.10;;;20.40;99.90;;;;;;6071538;23;20379;-92
2023/08/25 06:48:50;;;;;;;83.30;71.67;;;20.40;99.90;;;;;;6069479;23;20472;-93
2023/08/25 06:51:16;;;;;;;75.65;65.88;;;20.40;99.90;;;;;;6071093;23;20392;-91
2023/08/25 06:53:41;;;;;;;76.97;68.38;;;20.50;99.90;;;;;;6071254;23;20849;-94
2023/08/25 06:56:07;;;;;;;74.67;65.37;;;20.50;99.90;;;;;;6069650;23;20375;-93
2023/08/25 06:58:33;;;;;;;70.57;62.90;;;20.40;99.90;;;;;;6071674;23;20373;-93
2023/08/25 07:00:59;;;;;;;69.13;60.10;;;20.90;99.90;;;;;;6069001;23;20730;-94
2023/08/25 07:03:24;;;;;;;68.78;61.20;;;20.60;99.90;;;;;;6071265;23;20447;-93
2023/08/25 07:05:57;;;;;;;65.57;58.55;;;20.80;99.90;;;;;;6068925;23;20373;-95
2023/08/25 07:08:22;;;;;;;63.45;56.67;;;20.90;99.90;;;;;;6071190;23;20376;-93
2023/08/25 07:10:48;;;;;;;60.23;53.83;;;20.20;99.90;;;;;;6070592;23;20777;-94
2023/08/25 07:13:14;;;;;;;56.10;50.20;;;21.10;99.90;;;;;;6069615;23;20415;-94
2023/08/25 07:15:39;;;;;;;69.30;62.07;;;20.60;99.90;;;;;;6071442;23;20463;-94
2023/08/25 07:18:05;;;;;;;56.60;50.83;;;20.80;99.90;;;;;;6068337;23;20369;-93
2023/08/25 07:20:31;;;;;;;67.63;60.60;;;20.60;99.90;;;;;;6071136;23;20437;-94
2023/08/25 07:22:56;;;;;;;66.47;59.22;;;20.60;99.90;;;;;;6068474;23;20381;-93
2023/08/25 07:25:22;;;;;;;72.00;64.20;;;20.80;99.90;;;;;;6071172;23;20782;-94
2023/08/25 07:27:47;;;;;;;59.83;53.45;;;20.70;99.90;;;;;;6069626;23;20856;-92
2023/08/25 07:30:13;;;;;;;50.83;45.50;;;20.60;99.90;;;;;;6070450;23;20953;-94
2023/08/25 07:32:39;;;;;;;55.30;49.40;;;20.60;99.90;;;;;;6071076;23;20381;-95
2023/08/25 07:35:05;;;;;;;49.10;44.22;;;20.70;99.90;;;;;;6068906;23;20372;-93
2023/08/25 07:37:30;;;;;;;47.65;42.75;;;20.70;99.90;;;;;;6071220;23;20369;-92
2023/08/25 07:39:56;;;;;;;61.83;55.50;;;20.80;99.90;;;;;;6068570;23;20504;-92
2023/08/25 07:42:23;;;;;;;61.05;54.75;;;20.90;99.90;;;;;;6084558;23;20391;-94
2023/08/25 07:44:49;;;;;;;49.05;44.03;;;21.00;99.90;;;;;;6097607;23;20735;-93
2023/08/25 07:47:15;;;;;;;50.63;45.73;;;21.00;99.90;;;;;;6099915;23;20406;-93
2023/08/25 07:49:41;;;;;;;39.60;35.53;;;21.10;99.90;;;;;;6098788;23;20371;-94
2023/08/25 07:52:06;;;;;;;43.30;39.08;;;21.20;99.90;;;;;;6099456;23;20418;-92
2023/08/25 07:54:32;;;;;;;46.90;42.23;;;21.20;99.90;;;;;;6100074;23;20526;-92
2023/08/25 07:56:58;;;;;;;45.35;40.97;;;21.80;99.90;;;;;;6097899;23;20375;-94
2023/08/25 07:59:24;;;;;;;35.80;32.50;;;21.80;99.90;;;;;;6099776;23;20437;-93
2023/08/25 08:01:52;;;;;;;56.23;51.10;;;21.10;99.90;;;;;;6097468;23;20447;-93
2023/08/25 08:04:18;;;;;;;57.25;52.08;;;21.60;99.90;;;;;;6100565;23;20402;-92
2023/08/25 08:06:44;;;;;;;41.50;37.53;;;21.50;99.90;;;;;;6097709;23;20367;-93
2023/08/25 08:09:10;;;;;;;50.40;45.75;;;21.60;99.90;;;;;;6099390;23;20430;-94
2023/08/25 08:11:36;;;;;;;57.22;51.83;;;21.60;99.90;;;;;;6099870;23;20363;-93
2023/08/25 08:14:02;;;;;;;42.40;38.17;;;21.70;99.90;;;;;;6097848;23;20394;-94
2023/08/25 08:16:28;;;;;;;42.43;38.53;;;21.80;99.90;;;;;;6100009;23;20377;-95
2023/08/25 08:18:54;;;;;;;29.58;26.70;;;21.90;99.90;;;;;;6096764;23;20797;-94
2023/08/25 08:21:19;;;;;;;43.63;39.58;;;21.90;99.90;;;;;;6100449;23;20386;-94
2023/08/25 08:23:45;;;;;;;34.53;31.27;;;22.00;99.90;;;;;;6097317;23;20441;-94
2023/08/25 08:26:11;;;;;;;32.97;29.77;;;22.20;99.90;;;;;;6099143;23;20435;-93
2023/08/25 08:28:36;;;;;;;31.70;28.60;;;22.20;99.90;;;;;;6098233;23;20375;-94
2023/08/25 08:31:05;;;;;;;32.17;29.15;;;22.40;99.90;;;;;;6098183;23;20379;-94
2023/08/25 08:33:34;;;;;;;28.20;25.35;;;22.00;99.90;;;;;;6099636;23;20385;-93
2023/08/25 08:36:00;;;;;;;35.20;31.92;;;22.10;99.90;;;;;;6096985;23;20375;-93
2023/08/25 08:38:26;;;;;;;36.10;32.63;;;22.20;99.90;;;;;;6099453;23;20421;-93
2023/08/25 08:40:52;;;;;;;34.53;31.10;;;22.30;99.90;;;;;;6098776;23;21009;-93
2023/08/25 08:43:19;;;;;;;34.08;30.73;;;22.30;99.90;;;;;;6101431;23;20433;-93
2023/08/25 08:45:48;;;;;;;37.97;34.55;;;22.40;99.90;;;;;;6099447;23;20957;-93
2023/08/25 08:48:16;;;;;;;32.53;29.42;;;22.80;99.90;;;;;;6100099;23;20426;-94
2023/08/25 08:50:44;;;;;;;27.15;24.55;;;22.70;99.90;;;;;;6100969;23;20367;-94
2023/08/25 08:53:10;;;;;;;30.75;27.92;;;23.00;99.90;;;;;;6099165;23;20374;-93
2023/08/25 08:55:38;;;;;;;26.38;23.92;;;23.20;99.90;;;;;;6101469;23;20378;-93
2023/08/25 08:58:04;;;;;;;33.60;30.60;;;23.30;99.90;;;;;;6098917;23;20367;-93
2023/08/25 09:00:31;;;;;;;23.05;20.98;;;23.60;99.90;;;;;;6101117;23;20428;-93
2023/08/25 09:02:58;;;;;;;23.30;20.90;;;23.60;99.90;;;;;;6099830;23;20792;-94
2023/08/25 09:05:28;;;;;;;25.67;23.17;;;23.80;99.90;;;;;;6101485;23;20709;-93
2023/08/25 09:08:00;;;;;;;25.48;23.08;;;23.60;99.90;;;;;;6101968;23;20708;-93
2023/08/25 09:10:27;;;;;;;26.08;23.52;;;24.00;99.90;;;;;;6124434;23;20383;-92
2023/08/25 09:12:53;;;;;;;24.07;21.60;;;23.90;99.90;;;;;;6102107;23;20371;-93
2023/08/25 09:15:49;;;;;;;24.85;22.33;;;23.80;99.90;;;;;;6099665;23;20378;-94
2023/08/25 09:18:14;;;;;;;28.60;26.05;;;23.90;99.90;;;;;;6122111;23;20383;-94
2023/08/25 09:20:40;;;;;;;27.40;24.90;;;24.10;99.90;;;;;;6101440;23;20373;-91
2023/08/25 09:23:08;;;;;;;32.22;29.27;;;24.50;99.90;;;;;;6101501;23;20789;-94
2023/08/25 09:25:33;;;;;;;24.10;21.70;;;24.20;99.90;;;;;;6105207;23;20799;-94
2023/08/25 09:28:04;;;;;;;26.25;23.73;;;24.20;99.90;;;;;;6101268;23;20408;-93
2023/08/25 09:30:47;;;;;;;24.55;22.08;;;24.10;99.90;;;;;;6101579;23;20461;-93
2023/08/25 09:33:13;;;;;;;24.38;22.10;;;24.10;99.90;;;;;;6098610;23;20371;-94
2023/08/25 09:35:41;;;;;;;26.35;23.92;;;24.10;99.90;;;;;;6101261;23;20450;-93
2023/08/25 09:38:07;;;;;;;23.90;21.67;;;24.00;99.90;;;;;;6098698;23;20367;-93
2023/08/25 09:40:35;;;;;;;24.92;22.63;;;23.90;99.90;;;;;;6101118;23;20368;-94
2023/08/25 09:43:03;;;;;;;25.17;22.67;;;23.90;99.90;;;;;;6100004;23;20386;-95
2023/08/25 09:45:31;;;;;;;26.25;23.75;;;23.70;99.90;;;;;;6099040;23;20461;-94
2023/08/25 09:48:17;;;;;;;25.33;22.90;;;23.50;99.90;;;;;;6100712;23;20367;-95
2023/08/25 09:50:44;;;;;;;22.02;19.92;;;23.40;99.90;;;;;;6121950;23;20371;-94
2023/08/25 09:53:12;;;;;;;26.58;24.00;;;23.60;99.90;;;;;;6100641;23;20371;-94
2023/08/25 09:55:39;;;;;;;23.92;21.52;;;23.60;99.90;;;;;;6097309;23;20809;-94
2023/08/25 09:58:07;;;;;;;25.10;22.40;;;23.30;99.90;;;;;;6101997;23;20406;-93
2023/08/25 10:00:37;;;;;;;33.28;30.08;;;23.20;99.90;;;;;;6100095;23;20413;-93
2023/08/25 10:03:05;;;;;;;27.40;24.70;;;23.20;99.90;;;;;;6098567;23;20439;-94
2023/08/25 10:05:32;;;;;;;28.08;25.20;;;23.20;99.90;;;;;;6100094;23;20951;-93
2023/08/25 10:07:59;;;;;;;24.55;22.20;;;23.30;99.90;;;;;;6097575;23;20378;-92
2023/08/25 10:10:30;;;;;;;28.13;25.33;;;23.30;99.90;;;;;;6126686;23;20399;-93
2023/08/25 10:12:57;;;;;;;28.40;25.83;;;23.40;99.90;;;;;;6099525;23;20937;-90
2023/08/25 10:15:30;;;;;;;29.55;26.85;;;23.50;99.90;;;;;;6100043;23;20367;-95
2023/08/25 10:18:03;;;;;;;28.05;25.35;;;23.60;99.90;;;;;;6100709;23;20379;-91
2023/08/25 10:20:35;;;;;;;32.93;29.83;;;23.70;99.90;;;;;;6098827;23;20466;-92
2023/08/25 10:23:04;;;;;;;44.23;40.33;;;23.90;99.90;;;;;;6100964;23;20421;-95
2023/08/25 10:25:31;;;;;;;32.55;29.45;;;24.10;99.90;;;;;;6098407;23;20399;-92
2023/08/25 10:27:58;;;;;;;29.00;26.20;;;24.40;99.90;;;;;;6101902;23;20398;-94
2023/08/25 10:30:25;;;;;;;24.73;22.33;;;24.60;99.90;;;;;;6098212;23;20379;-94
2023/08/25 10:33:06;;;;;;;28.13;25.23;;;24.60;99.90;;;;;;6101058;23;20378;-92
2023/08/25 10:35:42;;;;;;;28.77;26.00;;;24.70;99.90;;;;;;6103435;23;20383;-93
2023/08/25 10:38:20;;;;;;;26.25;23.70;;;24.80;99.90;;;;;;6100304;23;20670;-94
2023/08/25 10:40:49;;;;;;;28.10;25.33;;;25.00;99.90;;;;;;6104235;23;20379;-93
2023/08/25 10:43:15;;;;;;;38.25;34.75;;;25.10;99.90;;;;;;6098162;23;20387;-92
2023/08/25 10:45:42;;;;;;;28.83;26.13;;;25.30;99.90;;;;;;6103756;23;20409;-95
2023/08/25 10:48:09;;;;;;;28.58;25.77;;;25.40;99.90;;;;;;6101519;23;20856;-93
2023/08/25 10:50:35;;;;;;;30.53;27.50;;;25.40;99.90;;;;;;6100546;23;20382;-94
2023/08/25 10:53:01;;;;;;;29.58;26.58;;;25.40;99.90;;;;;;6098911;23;20831;-93
2023/08/25 10:55:29;;;;;;;32.13;29.10;;;25.30;99.90;;;;;;6099990;23;20383;-92
2023/08/25 10:58:06;;;;;;;29.85;26.95;;;25.20;99.90;;;;;;6100371;23;20900;-92
2023/08/25 11:00:36;;;;;;;31.15;28.15;;;25.10;99.90;;;;;;6098742;23;20406;-93
2023/08/25 11:03:03;;;;;;;36.38;32.88;;;25.00;99.90;;;;;;6101055;23;20386;-93
2023/08/25 11:05:28;;;;;;;32.50;29.33;;;24.90;99.90;;;;;;6098826;23;20417;-94
2023/08/25 11:07:55;;;;;;;33.65;30.38;;;24.80;99.90;;;;;;6100966;23;20400;-91
2023/08/25 11:10:37;;;;;;;32.30;29.25;;;24.90;99.90;;;;;;6102120;23;20533;-95
2023/08/25 11:13:07;;;;;;;38.50;34.92;;;25.00;99.90;;;;;;6104674;23;20482;-93
2023/08/25 11:15:38;;;;;;;29.92;27.05;;;25.20;99.90;;;;;;6103545;23;20375;-94
2023/08/25 11:18:09;;;;;;;29.88;27.08;;;25.30;99.90;;;;;;6105439;23;20396;-95
2023/08/25 11:20:44;;;;;;;30.40;27.50;;;25.70;99.90;;;;;;6104147;23;20381;-92
2023/08/25 11:23:10;;;;;;;30.00;27.10;;;26.00;99.90;;;;;;6098876;23;20375;-95
2023/08/25 11:25:37;;;;;;;31.30;28.35;;;26.20;99.10;;;;;;6104613;23;20395;-91
2023/08/25 11:28:03;;;;;;;30.25;27.45;;;25.90;99.90;;;;;;6098454;23;21038;-93
2023/08/25 11:30:29;;;;;;;31.30;28.40;;;26.00;99.90;;;;;;6102543;23;20748;-92
2023/08/25 11:32:58;;;;;;;32.38;29.38;;;26.00;99.90;;;;;;6102375;23;20395;-94
2023/08/25 11:35:23;;;;;;;31.50;28.42;;;26.00;99.90;;;;;;6100087;23;20390;-92
2023/08/25 11:37:52;;;;;;;28.33;25.53;;;25.80;99.90;;;;;;6106898;23;20408;-95
2023/08/25 11:40:23;;;;;;;29.70;26.90;;;25.90;99.90;;;;;;6108861;23;20437;-95
2023/08/25 11:42:53;;;;;;;31.00;27.95;;;25.70;99.90;;;;;;6106814;23;20458;-93
2023/08/25 11:45:19;;;;;;;32.67;29.58;;;25.90;99.90;;;;;;6105124;23;20426;-94
2023/08/25 11:47:45;;;;;;;33.37;30.07;;;25.40;99.90;;;;;;6109626;23;20375;-95
2023/08/25 11:50:10;;;;;;;32.67;29.60;;;25.90;99.90;;;;;;6107221;23;20371;-92
2023/08/25 11:52:36;;;;;;;34.53;31.27;;;25.10;99.90;;;;;;6103475;23;20375;-93
2023/08/25 11:55:02;;;;;;;34.53;31.17;;;25.10;99.90;;;;;;6109854;23;20389;-94
2023/08/25 11:57:35;;;;;;;32.90;29.80;;;25.10;99.90;;;;;;6102158;23;20713;-94
2023/08/25 12:00:10;;;;;;;35.25;31.88;;;25.10;99.90;;;;;;6102068;23;20674;-94
2023/08/25 12:02:38;;;;;;;33.85;30.75;;;25.30;99.90;;;;;;6100694;23;20386;-95
2023/08/25 12:05:04;;;;;;;34.73;31.33;;;25.40;99.90;;;;;;6098759;23;20395;-94
2023/08/25 12:07:32;;;;;;;33.90;30.60;;;25.50;99.90;;;;;;6099026;23;20705;-91
2023/08/25 12:10:03;;;;;;;27.38;24.50;;;25.50;99.90;;;;;;6097451;23;20371;-94
2023/08/25 12:12:37;;;;;;;24.35;21.88;;;25.50;99.90;;;;;;6099714;23;20457;-95
2023/08/25 12:15:07;;;;;;;22.85;20.52;;;25.10;99.90;;;;;;6098705;23;20371;-95
2023/08/25 12:17:35;;;;;;;23.43;20.13;;;24.90;99.90;;;;;;6099252;23;20483;-94
2023/08/25 12:20:11;;;;;;;23.83;21.38;;;24.60;99.90;;;;;;6102450;23;20375;-95